sensor_id;sensor_type;location;lat;lon;timestamp;pressure;altitude;pressure_sealevel;temperature;humidity
11053;BME280;55230;42.602;23.470;2022-11-20T00:02:11;92871.78;;;14.33;88.94
11053;BME280;55230;42.602;23.470;2022-11-20T00:04:38;92882.72;;;14.44;87.08
11053;BME280;55230;42.602;23.470;2022-11-20T00:07:05;92881.25;;;14.49;85.65
11053;BME280;55230;42.602;23.470;2022-11-20T00:09:31;92873.84;;;14.49;85.44
11053;BME280;55230;42.602;23.470;2022-11-20T00:11:58;92893.63;;;14.61;86.60
11053;BME280;55230;42.602;23.470;2022-11-20T00:14:25;92886.25;;;14.67;85.60
11053;BME280;55230;42.602;23.470;2022-11-20T00:16:52;92903.31;;;14.73;84.86
11053;BME280;55230;42.602;23.470;2022-11-20T00:19:20;92905.06;;;14.81;84.22
11053;BME280;55230;42.602;23.470;2022-11-20T00:21:47;92886.34;;;14.83;84.05
11053;BME280;55230;42.602;23.470;2022-11-20T00:24:16;92883.88;;;14.85;83.51
11053;BME280;55230;42.602;23.470;2022-11-20T00:26:43;92876.47;;;14.91;82.62
11053;BME280;55230;42.602;23.470;2022-11-20T00:29:10;92674.69;;;13.44;83.00
11053;BME280;55230;42.602;23.470;2022-11-20T00:31:37;92873.50;;;14.84;83.93
11053;BME280;55230;42.602;23.470;2022-11-20T00:34:03;92708.38;;;13.43;85.28
11053;BME280;55230;42.602;23.470;2022-11-20T00:36:33;92868.47;;;14.60;85.11
11053;BME280;55230;42.602;23.470;2022-11-20T00:39:00;92872.41;;;14.59;85.16
11053;BME280;55230;42.602;23.470;2022-11-20T00:41:27;92872.91;;;14.63;83.88
11053;BME280;55230;42.602;23.470;2022-11-20T00:43:55;92869.75;;;14.65;83.80
11053;BME280;55230;42.602;23.470;2022-11-20T00:46:23;92712.75;;;13.71;83.23
11053;BME280;55230;42.602;23.470;2022-11-20T00:48:51;92798.72;;;14.19;83.75
11053;BME280;55230;42.602;23.470;2022-11-20T00:51:20;92845.00;;;14.52;83.04
11053;BME280;55230;42.602;23.470;2022-11-20T00:53:49;92833.41;;;14.51;82.82
11053;BME280;55230;42.602;23.470;2022-11-20T00:56:17;92894.75;;;14.85;82.62
11053;BME280;55230;42.602;23.470;2022-11-20T00:58:45;92810.41;;;14.30;81.21
11053;BME280;55230;42.602;23.470;2022-11-20T01:01:14;92912.03;;;14.93;81.67
11053;BME280;55230;42.602;23.470;2022-11-20T01:03:43;92904.66;;;14.99;81.13
11053;BME280;55230;42.602;23.470;2022-11-20T01:06:12;92898.00;;;15.00;81.75
11053;BME280;55230;42.602;23.470;2022-11-20T01:08:39;92373.38;;;11.41;80.52
11053;BME280;55230;42.602;23.470;2022-11-20T01:11:09;92910.56;;;14.92;81.71
11053;BME280;55230;42.602;23.470;2022-11-20T01:13:37;92474.53;;;11.72;80.83
11053;BME280;55230;42.602;23.470;2022-11-20T01:16:05;92885.66;;;14.99;80.84
11053;BME280;55230;42.602;23.470;2022-11-20T01:18:32;92885.34;;;14.86;80.92
11053;BME280;55230;42.602;23.470;2022-11-20T01:21:01;92828.03;;;14.62;80.79
11053;BME280;55230;42.602;23.470;2022-11-20T01:23:31;92889.69;;;15.32;77.46
11053;BME280;55230;42.602;23.470;2022-11-20T01:26:00;92814.78;;;14.86;79.39
11053;BME280;55230;42.602;23.470;2022-11-20T01:28:28;92860.03;;;15.28;79.40
11053;BME280;55230;42.602;23.470;2022-11-20T01:30:55;92765.59;;;14.57;79.53
11053;BME280;55230;42.602;23.470;2022-11-20T01:33:22;92450.72;;;12.43;79.72
11053;BME280;55230;42.602;23.470;2022-11-20T01:35:49;92750.28;;;14.48;79.65
11053;BME280;55230;42.602;23.470;2022-11-20T01:38:16;92834.34;;;15.13;79.25
11053;BME280;55230;42.602;23.470;2022-11-20T01:40:43;92836.28;;;14.95;80.33
11053;BME280;55230;42.602;23.470;2022-11-20T01:43:14;92829.34;;;14.89;80.14
11053;BME280;55230;42.602;23.470;2022-11-20T01:46:16;92814.03;;;14.80;80.20
11053;BME280;55230;42.602;23.470;2022-11-20T01:48:50;92807.09;;;14.68;81.60
11053;BME280;55230;42.602;23.470;2022-11-20T01:51:25;92766.16;;;14.88;76.64
11053;BME280;55230;42.602;23.470;2022-11-20T01:53:57;92768.41;;;14.90;76.69
11053;BME280;55230;42.602;23.470;2022-11-20T01:56:27;92741.66;;;14.44;76.75
11053;BME280;55230;42.602;23.470;2022-11-20T01:58:58;92826.47;;;15.31;76.66
11053;BME280;55230;42.602;23.470;2022-11-20T02:01:27;92804.69;;;15.09;78.11
11053;BME280;55230;42.602;23.470;2022-11-20T02:03:55;92734.31;;;14.61;77.23
11053;BME280;55230;42.602;23.470;2022-11-20T02:06:24;92782.94;;;14.81;78.54
11053;BME280;55230;42.602;23.470;2022-11-20T02:08:52;92802.75;;;15.32;76.11
11053;BME280;55230;42.602;23.470;2022-11-20T02:11:20;92819.31;;;15.45;76.05
11053;BME280;55230;42.602;23.470;2022-11-20T02:13:48;92835.38;;;15.76;72.84
11053;BME280;55230;42.602;23.470;2022-11-20T02:16:20;92812.66;;;15.62;73.40
11053;BME280;55230;42.602;23.470;2022-11-20T02:18:50;92829.44;;;15.77;74.16
11053;BME280;55230;42.602;23.470;2022-11-20T02:21:36;92841.06;;;15.72;75.41
11053;BME280;55230;42.602;23.470;2022-11-20T02:24:11;92838.09;;;15.70;74.09
11053;BME280;55230;42.602;23.470;2022-11-20T02:26:44;92743.47;;;14.97;74.47
11053;BME280;55230;42.602;23.470;2022-11-20T02:29:13;92834.91;;;15.72;74.55
11053;BME280;55230;42.602;23.470;2022-11-20T02:31:43;92838.13;;;15.65;72.31
11053;BME280;55230;42.602;23.470;2022-11-20T02:34:10;92810.69;;;15.57;73.98
11053;BME280;55230;42.602;23.470;2022-11-20T02:36:38;92842.03;;;16.02;71.79
11053;BME280;55230;42.602;23.470;2022-11-20T02:39:06;92419.06;;;13.14;71.15
11053;BME280;55230;42.602;23.470;2022-11-20T02:41:36;92844.00;;;16.13;70.83
11053;BME280;55230;42.602;23.470;2022-11-20T02:44:04;92838.31;;;16.05;71.31
11053;BME280;55230;42.602;23.470;2022-11-20T02:46:31;92842.66;;;16.64;66.59
11053;BME280;55230;42.602;23.470;2022-11-20T02:48:58;92839.59;;;16.84;66.45
11053;BME280;55230;42.602;23.470;2022-11-20T02:51:25;92834.03;;;17.11;64.79
11053;BME280;55230;42.602;23.470;2022-11-20T02:53:51;92834.78;;;17.06;65.87
11053;BME280;55230;42.602;23.470;2022-11-20T02:56:18;92791.91;;;16.66;65.13
11053;BME280;55230;42.602;23.470;2022-11-20T02:58:46;92860.03;;;17.07;64.98
11053;BME280;55230;42.602;23.470;2022-11-20T03:01:13;92856.88;;;16.97;63.92
11053;BME280;55230;42.602;23.470;2022-11-20T03:03:40;92872.56;;;17.26;64.49
11053;BME280;55230;42.602;23.470;2022-11-20T03:06:07;92886.88;;;17.38;63.25
11053;BME280;55230;42.602;23.470;2022-11-20T03:08:34;92829.41;;;16.95;63.96
11053;BME280;55230;42.602;23.470;2022-11-20T03:11:05;92847.56;;;17.22;62.28
11053;BME280;55230;42.602;23.470;2022-11-20T03:13:33;92869.03;;;17.37;62.19
11053;BME280;55230;42.602;23.470;2022-11-20T03:16:07;92786.56;;;16.96;61.95
11053;BME280;55230;42.602;23.470;2022-11-20T03:18:34;92898.66;;;17.57;62.44
11053;BME280;55230;42.602;23.470;2022-11-20T03:21:01;92884.53;;;17.59;61.18
11053;BME280;55230;42.602;23.470;2022-11-20T03:23:29;92898.63;;;17.68;61.62
11053;BME280;55230;42.602;23.470;2022-11-20T03:25:56;92884.41;;;17.81;60.51
11053;BME280;55230;42.602;23.470;2022-11-20T03:28:32;92817.13;;;17.18;61.41
11053;BME280;55230;42.602;23.470;2022-11-20T03:31:06;92902.22;;;17.82;61.01
11053;BME280;55230;42.602;23.470;2022-11-20T03:33:34;92802.56;;;17.10;61.23
11053;BME280;55230;42.602;23.470;2022-11-20T03:36:01;92860.91;;;17.31;61.86
11053;BME280;55230;42.602;23.470;2022-11-20T03:38:29;92908.00;;;17.73;61.72
11053;BME280;55230;42.602;23.470;2022-11-20T03:40:58;92905.75;;;17.77;62.10
11053;BME280;55230;42.602;23.470;2022-11-20T03:43:25;92720.25;;;16.47;62.02
11053;BME280;55230;42.602;23.470;2022-11-20T03:45:52;92911.34;;;17.55;62.41
11053;BME280;55230;42.602;23.470;2022-11-20T03:48:20;92932.38;;;17.60;62.50
11053;BME280;55230;42.602;23.470;2022-11-20T03:50:47;92915.00;;;17.63;61.96
11053;BME280;55230;42.602;23.470;2022-11-20T03:53:14;92894.94;;;17.60;61.83
11053;BME280;55230;42.602;23.470;2022-11-20T03:55:40;92796.94;;;17.03;62.36
11053;BME280;55230;42.602;23.470;2022-11-20T03:58:07;92897.94;;;17.57;61.57
11053;BME280;55230;42.602;23.470;2022-11-20T04:00:34;92516.22;;;14.86;61.63
11053;BME280;55230;42.602;23.470;2022-11-20T04:03:02;92900.19;;;17.53;62.31
11053;BME280;55230;42.602;23.470;2022-11-20T04:05:30;92903.69;;;17.48;63.82
11053;BME280;55230;42.602;23.470;2022-11-20T04:07:57;92793.00;;;16.36;64.03
11053;BME280;55230;42.602;23.470;2022-11-20T04:10:24;92611.44;;;14.99;66.35
11053;BME280;55230;42.602;23.470;2022-11-20T04:12:51;92846.34;;;16.66;64.36
11053;BME280;55230;42.602;23.470;2022-11-20T04:15:17;92883.16;;;16.89;64.10
11053;BME280;55230;42.602;23.470;2022-11-20T04:17:44;92917.47;;;17.14;65.29
11053;BME280;55230;42.602;23.470;2022-11-20T04:20:11;92912.28;;;17.11;64.82
11053;BME280;55230;42.602;23.470;2022-11-20T04:22:39;92930.31;;;17.19;64.05
11053;BME280;55230;42.602;23.470;2022-11-20T04:25:06;92771.78;;;16.23;64.60
11053;BME280;55230;42.602;23.470;2022-11-20T04:27:33;92942.66;;;17.31;64.84
11053;BME280;55230;42.602;23.470;2022-11-20T04:30:00;92925.09;;;17.27;65.01
11053;BME280;55230;42.602;23.470;2022-11-20T04:32:27;92937.19;;;17.31;64.91
11053;BME280;55230;42.602;23.470;2022-11-20T04:34:54;92930.03;;;17.28;65.79
11053;BME280;55230;42.602;23.470;2022-11-20T04:37:21;92937.72;;;17.24;68.71
11053;BME280;55230;42.602;23.470;2022-11-20T04:39:49;92921.47;;;17.02;68.33
11053;BME280;55230;42.602;23.470;2022-11-20T04:42:15;92880.22;;;16.82;67.67
11053;BME280;55230;42.602;23.470;2022-11-20T04:44:57;92465.47;;;13.82;69.82
11053;BME280;55230;42.602;23.470;2022-11-20T04:47:24;92926.00;;;16.89;68.66
11053;BME280;55230;42.602;23.470;2022-11-20T04:49:51;92832.06;;;16.38;69.09
11053;BME280;55230;42.602;23.470;2022-11-20T04:52:18;92917.38;;;16.74;70.28
11053;BME280;55230;42.602;23.470;2022-11-20T04:54:45;92840.03;;;16.31;69.91
11053;BME280;55230;42.602;23.470;2022-11-20T04:57:14;92902.75;;;16.82;69.76
11053;BME280;55230;42.602;23.470;2022-11-20T04:59:41;92910.91;;;16.82;69.75
11053;BME280;55230;42.602;23.470;2022-11-20T05:02:08;92688.66;;;15.37;69.21
11053;BME280;55230;42.602;23.470;2022-11-20T05:04:35;92919.56;;;16.81;69.71
11053;BME280;55230;42.602;23.470;2022-11-20T05:07:02;92917.13;;;16.77;70.96
11053;BME280;55230;42.602;23.470;2022-11-20T05:09:30;92948.31;;;16.71;72.83
11053;BME280;55230;42.602;23.470;2022-11-20T05:11:57;92955.75;;;16.37;77.76
11053;BME280;55230;42.602;23.470;2022-11-20T05:14:25;92924.13;;;16.23;78.94
11053;BME280;55230;42.602;23.470;2022-11-20T05:16:51;92527.75;;;13.54;81.91
11053;BME280;55230;42.602;23.470;2022-11-20T05:19:18;92840.56;;;15.52;83.85
11053;BME280;55230;42.602;23.470;2022-11-20T05:21:45;92865.75;;;15.36;88.42
11053;BME280;55230;42.602;23.470;2022-11-20T05:24:12;92830.38;;;15.19;87.84
11053;BME280;55230;42.602;23.470;2022-11-20T05:26:38;92920.41;;;15.71;90.18
11053;BME280;55230;42.602;23.470;2022-11-20T05:29:05;92761.91;;;14.54;93.32
11053;BME280;55230;42.602;23.470;2022-11-20T05:31:33;92859.50;;;15.19;92.15
11053;BME280;55230;42.602;23.470;2022-11-20T05:34:01;92904.50;;;15.36;93.90
11053;BME280;55230;42.602;23.470;2022-11-20T05:36:28;92906.22;;;15.34;92.62
11053;BME280;55230;42.602;23.470;2022-11-20T05:38:56;92914.13;;;15.32;93.67
11053;BME280;55230;42.602;23.470;2022-11-20T05:41:23;92917.56;;;15.27;94.38
11053;BME280;55230;42.602;23.470;2022-11-20T05:43:50;92924.75;;;15.30;93.66
11053;BME280;55230;42.602;23.470;2022-11-20T05:46:19;92928.94;;;15.25;94.27
11053;BME280;55230;42.602;23.470;2022-11-20T05:48:48;92945.47;;;15.22;95.31
11053;BME280;55230;42.602;23.470;2022-11-20T05:51:16;92923.94;;;15.13;99.44
11053;BME280;55230;42.602;23.470;2022-11-20T05:53:43;92943.72;;;15.19;99.05
11053;BME280;55230;42.602;23.470;2022-11-20T05:56:11;92934.06;;;15.12;98.38
11053;BME280;55230;42.602;23.470;2022-11-20T05:58:39;92971.06;;;15.04;100.00
11053;BME280;55230;42.602;23.470;2022-11-20T06:01:08;92887.47;;;14.60;100.00
11053;BME280;55230;42.602;23.470;2022-11-20T06:03:35;92892.81;;;14.44;100.00
11053;BME280;55230;42.602;23.470;2022-11-20T06:06:04;92926.03;;;14.81;100.00
11053;BME280;55230;42.602;23.470;2022-11-20T06:08:31;92925.78;;;14.79;100.00
11053;BME280;55230;42.602;23.470;2022-11-20T06:10:58;92907.72;;;14.65;100.00
11053;BME280;55230;42.602;23.470;2022-11-20T06:13:29;92859.53;;;14.49;98.68
11053;BME280;55230;42.602;23.470;2022-11-20T06:15:55;92851.69;;;14.56;99.53
11053;BME280;55230;42.602;23.470;2022-11-20T06:18:22;92891.56;;;14.92;100.00
11053;BME280;55230;42.602;23.470;2022-11-20T06:20:49;92850.72;;;14.59;99.61
11053;BME280;55230;42.602;23.470;2022-11-20T06:23:17;92849.44;;;14.55;95.53
11053;BME280;55230;42.602;23.470;2022-11-20T06:25:44;92611.88;;;12.98;93.48
11053;BME280;55230;42.602;23.470;2022-11-20T06:28:10;92908.41;;;15.13;91.59
11053;BME280;55230;42.602;23.470;2022-11-20T06:30:37;92926.69;;;15.18;92.10
11053;BME280;55230;42.602;23.470;2022-11-20T06:33:10;92925.47;;;15.25;90.97
11053;BME280;55230;42.602;23.470;2022-11-20T06:35:37;92920.59;;;15.40;86.94
11053;BME280;55230;42.602;23.470;2022-11-20T06:38:04;92925.06;;;15.54;86.36
11053;BME280;55230;42.602;23.470;2022-11-20T06:40:32;92931.25;;;15.65;84.20
11053;BME280;55230;42.602;23.470;2022-11-20T06:42:59;92909.75;;;15.51;85.57
11053;BME280;55230;42.602;23.470;2022-11-20T06:45:25;92915.72;;;15.71;86.78
11053;BME280;55230;42.602;23.470;2022-11-20T06:47:54;92926.59;;;15.77;84.23
11053;BME280;55230;42.602;23.470;2022-11-20T06:50:23;92924.59;;;15.61;89.46
11053;BME280;55230;42.602;23.470;2022-11-20T06:52:50;92913.47;;;15.86;88.94
11053;BME280;55230;42.602;23.470;2022-11-20T06:55:16;92933.75;;;15.85;89.18
11053;BME280;55230;42.602;23.470;2022-11-20T06:57:44;92924.63;;;15.94;89.34
11053;BME280;55230;42.602;23.470;2022-11-20T07:00:12;92932.78;;;15.94;86.98
11053;BME280;55230;42.602;23.470;2022-11-20T07:02:39;92887.53;;;15.69;87.25
11053;BME280;55230;42.602;23.470;2022-11-20T07:05:06;92952.28;;;16.03;88.37
11053;BME280;55230;42.602;23.470;2022-11-20T07:07:33;92931.53;;;16.06;84.97
11053;BME280;55230;42.602;23.470;2022-11-20T07:10:00;92502.25;;;13.19;81.19
11053;BME280;55230;42.602;23.470;2022-11-20T07:12:26;92829.22;;;15.59;82.72
11053;BME280;55230;42.602;23.470;2022-11-20T07:14:54;92922.09;;;16.40;84.07
11053;BME280;55230;42.602;23.470;2022-11-20T07:17:21;92939.91;;;16.41;82.40
11053;BME280;55230;42.602;23.470;2022-11-20T07:19:48;92938.94;;;16.55;83.22
11053;BME280;55230;42.602;23.470;2022-11-20T07:22:15;92936.72;;;16.54;83.13
11053;BME280;55230;42.602;23.470;2022-11-20T07:24:42;92932.78;;;16.49;82.50
11053;BME280;55230;42.602;23.470;2022-11-20T07:27:08;92938.94;;;16.55;74.13
11053;BME280;55230;42.602;23.470;2022-11-20T07:29:35;92919.38;;;16.57;76.43
11053;BME280;55230;42.602;23.470;2022-11-20T07:32:04;92581.38;;;14.42;70.46
11053;BME280;55230;42.602;23.470;2022-11-20T07:34:30;92925.00;;;16.86;70.48
11053;BME280;55230;42.602;23.470;2022-11-20T07:36:57;92918.50;;;17.00;70.05
11053;BME280;55230;42.602;23.470;2022-11-20T07:39:24;92547.34;;;14.52;70.72
11053;BME280;55230;42.602;23.470;2022-11-20T07:41:51;92929.31;;;17.22;70.39
11053;BME280;55230;42.602;23.470;2022-11-20T07:44:17;92978.59;;;17.24;70.48
11053;BME280;55230;42.602;23.470;2022-11-20T07:46:44;92938.25;;;17.17;71.85
11053;BME280;55230;42.602;23.470;2022-11-20T07:49:12;92937.19;;;17.31;72.90
11053;BME280;55230;42.602;23.470;2022-11-20T07:51:39;92946.81;;;17.38;74.56
11053;BME280;55230;42.602;23.470;2022-11-20T07:54:06;92938.66;;;17.32;75.01
11053;BME280;55230;42.602;23.470;2022-11-20T07:56:33;92938.72;;;17.21;75.54
11053;BME280;55230;42.602;23.470;2022-11-20T07:59:03;92931.75;;;17.31;76.03
11053;BME280;55230;42.602;23.470;2022-11-20T08:01:29;92849.84;;;16.61;76.64
11053;BME280;55230;42.602;23.470;2022-11-20T08:03:56;92824.66;;;16.50;76.31
11053;BME280;55230;42.602;23.470;2022-11-20T08:06:24;92876.56;;;16.57;75.61
11053;BME280;55230;42.602;23.470;2022-11-20T08:08:51;92978.31;;;17.33;74.56
11053;BME280;55230;42.602;23.470;2022-11-20T08:11:18;92806.63;;;16.30;76.39
11053;BME280;55230;42.602;23.470;2022-11-20T08:14:02;92940.22;;;17.22;76.16
11053;BME280;55230;42.602;23.470;2022-11-20T08:16:42;92902.19;;;16.95;77.95
11053;BME280;55230;42.602;23.470;2022-11-20T08:19:09;92932.59;;;17.10;75.38
11053;BME280;55230;42.602;23.470;2022-11-20T08:21:38;92927.16;;;17.10;76.82
11053;BME280;55230;42.602;23.470;2022-11-20T08:24:05;92914.31;;;17.05;76.89
11053;BME280;55230;42.602;23.470;2022-11-20T08:26:32;92928.59;;;17.22;77.84
11053;BME280;55230;42.602;23.470;2022-11-20T08:28:59;92872.81;;;16.77;74.26
11053;BME280;55230;42.602;23.470;2022-11-20T08:31:27;92930.53;;;17.27;74.60
11053;BME280;55230;42.602;23.470;2022-11-20T08:33:54;92912.50;;;17.18;74.09
11053;BME280;55230;42.602;23.470;2022-11-20T08:36:22;92931.47;;;17.41;75.27
11053;BME280;55230;42.602;23.470;2022-11-20T08:38:52;92728.28;;;16.12;74.45
11053;BME280;55230;42.602;23.470;2022-11-20T08:41:19;92942.28;;;17.57;71.05
11053;BME280;55230;42.602;23.470;2022-11-20T08:43:56;92937.53;;;17.69;71.89
11053;BME280;55230;42.602;23.470;2022-11-20T08:46:23;92933.50;;;17.81;72.48
11053;BME280;55230;42.602;23.470;2022-11-20T08:48:50;92929.50;;;17.82;73.75
11053;BME280;55230;42.602;23.470;2022-11-20T08:51:18;92927.28;;;17.80;72.71
11053;BME280;55230;42.602;23.470;2022-11-20T08:53:45;92898.25;;;17.42;74.38
11053;BME280;55230;42.602;23.470;2022-11-20T08:56:15;92948.00;;;17.59;75.17
11053;BME280;55230;42.602;23.470;2022-11-20T08:58:42;92962.16;;;17.47;75.06
11053;BME280;55230;42.602;23.470;2022-11-20T09:01:09;92967.41;;;17.33;74.78
11053;BME280;55230;42.602;23.470;2022-11-20T09:03:36;92881.47;;;16.75;75.40
11053;BME280;55230;42.602;23.470;2022-11-20T09:06:05;92734.09;;;15.59;75.18
11053;BME280;55230;42.602;23.470;2022-11-20T09:08:33;92709.94;;;15.44;74.62
11053;BME280;55230;42.602;23.470;2022-11-20T09:11:00;92967.13;;;17.43;74.33
11053;BME280;55230;42.602;23.470;2022-11-20T09:13:29;92931.34;;;17.05;75.27
11053;BME280;55230;42.602;23.470;2022-11-20T09:15:57;92873.59;;;16.66;76.10
11053;BME280;55230;42.602;23.470;2022-11-20T09:18:25;92947.50;;;16.98;79.45
11053;BME280;55230;42.602;23.470;2022-11-20T09:20:56;92981.84;;;17.17;81.35
11053;BME280;55230;42.602;23.470;2022-11-20T09:23:23;92794.13;;;15.61;77.64
11053;BME280;55230;42.602;23.470;2022-11-20T09:25:50;92913.94;;;16.35;76.98
11053;BME280;55230;42.602;23.470;2022-11-20T09:28:18;92957.97;;;16.77;78.47
11053;BME280;55230;42.602;23.470;2022-11-20T09:30:46;92955.25;;;16.66;80.36
11053;BME280;55230;42.602;23.470;2022-11-20T09:33:13;92638.06;;;14.51;85.35
11053;BME280;55230;42.602;23.470;2022-11-20T09:35:39;92949.34;;;16.12;83.89
11053;BME280;55230;42.602;23.470;2022-11-20T09:38:06;92960.94;;;16.74;83.93
11053;BME280;55230;42.602;23.470;2022-11-20T09:40:35;92957.72;;;16.64;86.20
11053;BME280;55230;42.602;23.470;2022-11-20T09:43:06;92950.31;;;16.70;87.29
11053;BME280;55230;42.602;23.470;2022-11-20T09:45:48;92453.28;;;13.11;86.98
11053;BME280;55230;42.602;23.470;2022-11-20T09:51:20;92818.06;;;15.24;87.26
11053;BME280;55230;42.602;23.470;2022-11-20T09:53:58;92960.22;;;16.40;87.76
11053;BME280;55230;42.602;23.470;2022-11-20T09:56:28;92953.28;;;16.61;87.13
11053;BME280;55230;42.602;23.470;2022-11-20T09:58:58;92962.41;;;16.69;86.27
11053;BME280;55230;42.602;23.470;2022-11-20T10:01:31;92903.31;;;16.26;85.45
11053;BME280;55230;42.602;23.470;2022-11-20T10:04:01;92901.84;;;16.19;85.64
11053;BME280;55230;42.602;23.470;2022-11-20T10:06:31;92936.97;;;16.50;84.32
11053;BME280;55230;42.602;23.470;2022-11-20T10:09:06;92937.69;;;16.62;86.36
11053;BME280;55230;42.602;23.470;2022-11-20T10:11:48;92921.84;;;16.44;86.67
11053;BME280;55230;42.602;23.470;2022-11-20T10:14:23;92908.25;;;16.38;88.26
11053;BME280;55230;42.602;23.470;2022-11-20T10:17:01;92914.19;;;16.37;92.10
11053;BME280;55230;42.602;23.470;2022-11-20T10:19:40;92927.81;;;16.31;94.64
11053;BME280;55230;42.602;23.470;2022-11-20T10:22:19;92642.69;;;14.12;96.25
11053;BME280;55230;42.602;23.470;2022-11-20T10:24:55;92931.03;;;16.02;96.90
11053;BME280;55230;42.602;23.470;2022-11-20T10:27:33;92925.13;;;15.92;97.44
11053;BME280;55230;42.602;23.470;2022-11-20T10:30:09;92924.38;;;15.92;99.15
11053;BME280;55230;42.602;23.470;2022-11-20T10:32:40;92912.50;;;15.73;100.00
11053;BME280;55230;42.602;23.470;2022-11-20T10:35:19;92905.81;;;15.68;100.00
11053;BME280;55230;42.602;23.470;2022-11-20T10:37:50;92908.78;;;15.65;100.00
11053;BME280;55230;42.602;23.470;2022-11-20T10:40:23;92913.47;;;15.59;100.00
11053;BME280;55230;42.602;23.470;2022-11-20T10:42:56;92375.59;;;11.74;100.00
11053;BME280;55230;42.602;23.470;2022-11-20T10:45:36;92819.63;;;14.60;100.00
11053;BME280;55230;42.602;23.470;2022-11-20T10:48:15;92911.63;;;15.23;100.00
11053;BME280;55230;42.602;23.470;2022-11-20T10:50:53;92896.53;;;15.11;100.00
11053;BME280;55230;42.602;23.470;2022-11-20T10:53:33;92889.88;;;15.12;100.00
11053;BME280;55230;42.602;23.470;2022-11-20T10:56:11;92866.88;;;14.90;100.00
11053;BME280;55230;42.602;23.470;2022-11-20T10:58:52;92902.03;;;15.27;100.00
11053;BME280;55230;42.602;23.470;2022-11-20T11:01:21;92894.13;;;15.35;100.00
11053;BME280;55230;42.602;23.470;2022-11-20T11:03:50;92836.03;;;14.99;100.00
11053;BME280;55230;42.602;23.470;2022-11-20T11:06:23;92898.09;;;15.34;98.86
11053;BME280;55230;42.602;23.470;2022-11-20T11:08:53;92902.78;;;15.39;98.65
11053;BME280;55230;42.602;23.470;2022-11-20T11:11:22;92899.03;;;15.31;97.29
11053;BME280;55230;42.602;23.470;2022-11-20T11:13:49;92900.53;;;15.32;97.07
11053;BME280;55230;42.602;23.470;2022-11-20T11:16:20;92910.44;;;15.35;97.40
11053;BME280;55230;42.602;23.470;2022-11-20T11:18:49;92873.78;;;14.91;98.68
11053;BME280;55230;42.602;23.470;2022-11-20T11:21:22;92908.88;;;15.06;100.00
11053;BME280;55230;42.602;23.470;2022-11-20T11:23:58;92919.97;;;15.02;100.00
11053;BME280;55230;42.602;23.470;2022-11-20T11:26:25;92311.66;;;10.46;100.00
11053;BME280;55230;42.602;23.470;2022-11-20T11:28:54;92939.91;;;14.46;100.00
11053;BME280;55230;42.602;23.470;2022-11-20T11:31:25;92950.75;;;14.10;100.00
11053;BME280;55230;42.602;23.470;2022-11-20T11:34:03;92852.25;;;12.99;100.00
11053;BME280;55230;42.602;23.470;2022-11-20T11:36:32;92965.16;;;13.64;100.00
11053;BME280;55230;42.602;23.470;2022-11-20T11:39:00;92969.66;;;13.73;100.00
11053;BME280;55230;42.602;23.470;2022-11-20T11:41:30;92974.81;;;13.71;100.00
11053;BME280;55230;42.602;23.470;2022-11-20T11:44:12;93024.41;;;13.77;100.00
11053;BME280;55230;42.602;23.470;2022-11-20T11:46:59;93026.56;;;13.73;100.00
11053;BME280;55230;42.602;23.470;2022-11-20T11:49:27;93026.56;;;13.73;100.00
11053;BME280;55230;42.602;23.470;2022-11-20T11:52:04;93001.75;;;13.54;100.00
11053;BME280;55230;42.602;23.470;2022-11-20T11:54:38;92889.06;;;12.71;100.00
11053;BME280;55230;42.602;23.470;2022-11-20T11:57:14;92936.53;;;13.12;100.00
11053;BME280;55230;42.602;23.470;2022-11-20T11:59:51;92955.63;;;13.49;100.00
11053;BME280;55230;42.602;23.470;2022-11-20T12:02:31;92970.63;;;13.24;100.00
11053;BME280;55230;42.602;23.470;2022-11-20T12:05:09;92954.25;;;13.13;99.39
11053;BME280;55230;42.602;23.470;2022-11-20T12:07:41;92829.44;;;12.20;98.33
11053;BME280;55230;42.602;23.470;2022-11-20T12:10:16;92966.25;;;13.07;100.00
11053;BME280;55230;42.602;23.470;2022-11-20T12:12:47;92859.38;;;12.36;100.00
11053;BME280;55230;42.602;23.470;2022-11-20T12:15:25;92745.38;;;11.43;99.59
11053;BME280;55230;42.602;23.470;2022-11-20T12:17:52;92958.81;;;13.02;100.00
11053;BME280;55230;42.602;23.470;2022-11-20T12:20:22;92902.53;;;12.45;100.00
11053;BME280;55230;42.602;23.470;2022-11-20T12:22:55;92929.25;;;12.58;100.00
11053;BME280;55230;42.602;23.470;2022-11-20T12:25:25;92913.53;;;12.42;100.00
11053;BME280;55230;42.602;23.470;2022-11-20T12:28:13;92933.69;;;12.61;100.00
11053;BME280;55230;42.602;23.470;2022-11-20T12:30:55;92706.78;;;11.02;100.00
11053;BME280;55230;42.602;23.470;2022-11-20T12:33:51;92953.78;;;12.74;100.00
11053;BME280;55230;42.602;23.470;2022-11-20T12:36:30;92964.00;;;12.85;100.00
11053;BME280;55230;42.602;23.470;2022-11-20T12:39:19;92942.97;;;12.54;100.00
11053;BME280;55230;42.602;23.470;2022-11-20T12:48:23;92911.03;;;12.99;100.00
11053;BME280;55230;42.602;23.470;2022-11-20T12:51:01;92899.69;;;13.20;100.00
11053;BME280;55230;42.602;23.470;2022-11-20T12:53:40;92896.22;;;13.40;100.00
11053;BME280;55230;42.602;23.470;2022-11-20T12:56:23;92878.13;;;13.57;100.00
11053;BME280;55230;42.602;23.470;2022-11-20T12:59:04;92468.50;;;10.91;100.00
11053;BME280;55230;42.602;23.470;2022-11-20T13:01:37;92637.06;;;12.21;100.00
11053;BME280;55230;42.602;23.470;2022-11-20T13:04:16;92863.53;;;13.80;100.00
11053;BME280;55230;42.602;23.470;2022-11-20T13:06:44;92863.94;;;13.67;100.00
11053;BME280;55230;42.602;23.470;2022-11-20T13:09:15;92826.59;;;13.46;100.00
11053;BME280;55230;42.602;23.470;2022-11-20T13:11:45;92860.03;;;13.74;100.00